createdAt,value
2018-10-16T00:01:26.455Z,67.08
2018-10-16T00:03:57.059Z,67.76
2018-10-16T00:06:27.988Z,66.70
2018-10-16T00:09:07.237Z,67.54
2018-10-16T00:11:38.544Z,67.26
2018-10-16T00:14:09.175Z,67.48
2018-10-16T00:16:39.855Z,67.50
2018-10-16T00:19:10.457Z,68.17
2018-10-16T00:21:41.084Z,67.93
2018-10-16T00:24:11.748Z,68.65
2018-10-16T00:26:42.316Z,68.59
2018-10-16T00:29:12.900Z,68.69
2018-10-16T00:31:43.487Z,68.71
2018-10-16T00:34:14.097Z,68.98
2018-10-16T00:36:44.669Z,68.61
2018-10-16T00:39:16.424Z,68.87
2018-10-16T00:41:52.296Z,68.50
2018-10-16T00:44:22.915Z,68.52
2018-10-16T00:46:53.856Z,69.01
2018-10-16T00:49:24.497Z,68.97
2018-10-16T00:51:55.093Z,68.94
2018-10-16T00:54:25.698Z,69.07
2018-10-16T00:56:56.304Z,68.92
2018-10-16T00:59:26.931Z,68.65
2018-10-16T01:01:57.610Z,68.76
2018-10-16T01:04:28.254Z,68.79
2018-10-16T01:06:59.411Z,68.78
2018-10-16T01:09:30.003Z,68.97
2018-10-16T01:12:00.663Z,69.02
2018-10-16T01:14:31.528Z,69.69
2018-10-16T01:17:02.180Z,69.19
2018-10-16T01:19:33.128Z,69.78
2018-10-16T01:22:04.660Z,69.68
2018-10-16T01:24:35.299Z,69.24
2018-10-16T01:27:06.012Z,69.44
2018-10-16T01:29:36.915Z,69.59
2018-10-16T01:32:07.572Z,69.19
2018-10-16T01:34:38.192Z,69.93
2018-10-16T01:37:08.880Z,69.68
2018-10-16T01:39:39.507Z,70.08
2018-10-16T01:42:10.109Z,69.74
2018-10-16T01:44:41.016Z,69.75
2018-10-16T01:47:11.636Z,70.01
2018-10-16T01:49:42.348Z,70.04
2018-10-16T01:52:12.970Z,70.23
2018-10-16T01:54:43.586Z,70.12
2018-10-16T01:57:14.148Z,70.61
2018-10-16T01:59:45.123Z,70.04
2018-10-16T02:02:15.757Z,70.43
2018-10-16T02:04:46.584Z,70.87
2018-10-16T02:07:17.160Z,70.15
2018-10-16T02:09:47.767Z,70.47
2018-10-16T02:12:18.603Z,70.45
2018-10-16T02:14:49.537Z,69.88
2018-10-16T02:17:20.236Z,70.56
2018-10-16T02:19:50.866Z,70.89
2018-10-16T02:22:21.455Z,72.13
2018-10-16T02:24:52.040Z,71.64
2018-10-16T02:27:22.637Z,72.31
2018-10-16T02:29:53.236Z,71.39
2018-10-16T02:32:23.828Z,71.32
2018-10-16T02:34:54.414Z,71.60
2018-10-16T02:37:25.246Z,71.44
2018-10-16T02:39:55.845Z,72.09
2018-10-16T02:42:26.668Z,72.12
2018-10-16T02:44:57.296Z,71.91
2018-10-16T02:47:28.131Z,72.51
2018-10-16T02:49:58.716Z,71.99
2018-10-16T02:52:29.531Z,71.62
2018-10-16T02:55:00.140Z,72.23
2018-10-16T02:57:30.752Z,71.82
2018-10-16T03:00:01.366Z,72.28
2018-10-16T03:02:32.144Z,71.82
2018-10-16T03:05:03.025Z,71.71
2018-10-16T03:07:33.540Z,72.87
2018-10-16T03:10:04.615Z,72.13
2018-10-16T03:12:35.195Z,72.46
2018-10-16T03:15:09.804Z,72.97
2018-10-16T03:17:40.670Z,72.92
2018-10-16T03:20:12.175Z,72.20
2018-10-16T03:22:42.747Z,72.88
2018-10-16T03:25:13.630Z,72.84
2018-10-16T03:27:44.216Z,73.57
2018-10-16T03:30:14.847Z,73.52
2018-10-16T03:32:45.442Z,73.52
2018-10-16T03:35:16.043Z,72.87
2018-10-16T03:37:46.647Z,73.32
2018-10-16T03:40:17.489Z,73.29
2018-10-16T03:42:48.324Z,73.62
2018-10-16T03:45:18.934Z,74.05
2018-10-16T03:47:49.544Z,73.79
2018-10-16T03:50:20.111Z,72.47
2018-10-16T03:52:50.752Z,73.01
2018-10-16T03:55:21.327Z,72.82
2018-10-16T03:57:51.952Z,72.32
2018-10-16T04:00:22.576Z,72.08
2018-10-16T04:02:53.151Z,72.45
2018-10-16T04:05:23.795Z,72.37
2018-10-16T04:07:54.481Z,73.04
2018-10-16T04:10:25.071Z,72.21
2018-10-16T04:12:55.704Z,73.22
2018-10-16T04:15:26.574Z,73.17
2018-10-16T04:17:57.196Z,73.19
2018-10-16T04:20:27.861Z,73.49
2018-10-16T04:22:58.475Z,73.54
2018-10-16T04:25:29.271Z,74.32
2018-10-16T04:28:00.215Z,73.97
2018-10-16T04:30:30.820Z,74.65
2018-10-16T04:33:01.484Z,73.63
2018-10-16T04:35:32.047Z,73.29
2018-10-16T04:38:02.959Z,73.00
2018-10-16T04:40:33.528Z,73.66
2018-10-16T04:43:04.240Z,73.37
2018-10-16T04:45:34.890Z,73.62
2018-10-16T04:48:06.115Z,73.87
2018-10-16T04:50:36.687Z,74.38
2018-10-16T04:53:07.553Z,74.48
2018-10-16T04:55:38.092Z,74.62
2018-10-16T04:58:08.696Z,74.59
2018-10-16T05:00:39.287Z,74.50
2018-10-16T05:03:09.894Z,74.52
2018-10-16T05:05:40.843Z,74.88
2018-10-16T05:08:11.391Z,74.42
2018-10-16T05:10:42.031Z,75.32
2018-10-16T05:13:12.653Z,75.03
2018-10-16T05:15:43.574Z,75.41
2018-10-16T05:18:14.174Z,75.68
2018-10-16T05:20:44.863Z,75.01
2018-10-16T05:23:15.536Z,75.14
2018-10-16T05:25:46.598Z,74.68
2018-10-16T05:28:17.159Z,73.59
2018-10-16T05:30:47.907Z,73.75
2018-10-16T05:33:18.904Z,74.28
2018-10-16T05:35:49.496Z,74.93
2018-10-16T05:38:20.072Z,74.83
2018-10-16T05:40:50.685Z,75.41
2018-10-16T05:43:21.255Z,74.71
2018-10-16T05:45:51.840Z,74.46
2018-10-16T05:48:22.528Z,75.04
2018-10-16T05:50:53.195Z,74.87
2018-10-16T05:53:23.831Z,75.33
2018-10-16T05:56:06.275Z,75.29
2018-10-16T05:58:36.871Z,75.03
2018-10-16T06:01:07.859Z,75.72
2018-10-16T06:03:38.485Z,75.64
2018-10-16T06:06:09.276Z,75.44
2018-10-16T06:08:39.876Z,75.59
2018-10-16T06:11:10.451Z,74.83
2018-10-16T06:13:41.047Z,74.34
2018-10-16T06:16:11.465Z,74.35
2018-10-16T06:18:42.225Z,74.47
2018-10-16T06:21:12.831Z,74.26
2018-10-16T06:23:43.670Z,74.94
2018-10-16T06:26:14.276Z,73.18
2018-10-16T06:28:45.079Z,73.49
2018-10-16T06:31:15.735Z,73.56
2018-10-16T06:33:46.347Z,73.25
2018-10-16T06:36:17.167Z,72.11
2018-10-16T06:38:47.757Z,71.37
2018-10-16T06:41:18.483Z,71.12
2018-10-16T06:43:49.410Z,70.05
2018-10-16T06:46:20.528Z,70.52
2018-10-16T06:48:51.504Z,69.94
2018-10-16T06:51:22.372Z,69.53
2018-10-16T06:53:52.934Z,69.03
2018-10-16T06:56:23.523Z,68.46
2018-10-16T06:58:54.314Z,68.57
2018-10-16T07:01:24.915Z,67.43
2018-10-16T07:03:55.479Z,67.09
2018-10-16T07:06:26.132Z,66.28
2018-10-16T07:08:57.086Z,66.29
2018-10-16T07:11:27.707Z,66.81
2018-10-16T07:13:58.327Z,66.64
2018-10-16T07:16:29.051Z,65.91
2018-10-16T07:18:59.656Z,65.89
2018-10-16T07:21:30.263Z,66.02
2018-10-16T07:24:01.158Z,65.07
2018-10-16T07:26:31.863Z,64.17
2018-10-16T07:29:02.886Z,63.90
2018-10-16T07:31:33.611Z,64.30
2018-10-16T07:34:04.485Z,64.52
2018-10-16T07:36:35.233Z,64.53
2018-10-16T07:39:09.637Z,64.82
2018-10-16T07:41:40.991Z,62.41
2018-10-16T07:44:11.838Z,61.77
2018-10-16T07:46:42.428Z,61.41
2018-10-16T07:49:13.034Z,62.18
2018-10-16T07:51:43.620Z,61.92
2018-10-16T07:54:14.459Z,62.10
2018-10-16T07:56:45.072Z,62.16
2018-10-16T07:59:15.755Z,61.08
2018-10-16T08:01:46.573Z,60.82
2018-10-16T08:04:17.192Z,60.21
2018-10-16T08:06:48.099Z,60.32
2018-10-16T08:09:18.934Z,60.20
2018-10-16T08:11:50.543Z,59.50
2018-10-16T08:14:21.860Z,59.00
2018-10-16T08:16:52.460Z,58.68
2018-10-16T08:19:23.271Z,58.81
2018-10-16T08:21:53.836Z,58.91
2018-10-16T08:24:24.431Z,58.76
2018-10-16T08:26:55.064Z,58.66
2018-10-16T08:29:25.853Z,59.03
2018-10-16T08:31:56.671Z,58.76
2018-10-16T08:34:27.263Z,58.51
2018-10-16T08:36:57.940Z,57.64
2018-10-16T08:39:34.734Z,57.31
2018-10-16T08:45:28.049Z,56.28
2018-10-16T08:48:15.348Z,54.52
2018-10-16T08:51:02.716Z,55.56
2018-10-16T08:53:33.545Z,55.49
2018-10-16T08:56:04.123Z,55.04
2018-10-16T08:58:34.704Z,54.91
2018-10-16T09:01:05.810Z,53.51
2018-10-16T09:03:36.571Z,53.94
2018-10-16T09:06:07.851Z,52.54
2018-10-16T09:08:38.484Z,53.57
2018-10-16T09:11:09.044Z,52.45
2018-10-16T09:13:39.647Z,52.65
2018-10-16T09:16:10.348Z,53.20
2018-10-16T09:18:40.945Z,52.79
2018-10-16T09:21:11.524Z,52.04
2018-10-16T09:23:42.110Z,52.80
2018-10-16T09:26:13.043Z,52.42
2018-10-16T09:28:43.683Z,52.42
2018-10-16T09:31:14.234Z,52.15
2018-10-16T09:33:44.880Z,50.88
2018-10-16T09:36:15.476Z,49.45
2018-10-16T09:38:46.119Z,49.31
2018-10-16T09:41:17.190Z,50.27
2018-10-16T09:43:48.048Z,49.57
2018-10-16T09:46:18.624Z,49.22
2018-10-16T09:48:49.207Z,49.22
2018-10-16T09:51:19.851Z,48.59
2018-10-16T09:53:50.462Z,48.81
2018-10-16T09:56:21.120Z,48.70
2018-10-16T09:58:51.715Z,49.02
2018-10-16T10:01:27.538Z,47.82
2018-10-16T10:03:58.109Z,48.02
2018-10-16T10:06:28.716Z,48.57
2018-10-16T10:08:59.288Z,48.08
2018-10-16T10:11:30.135Z,48.26
2018-10-16T10:14:00.796Z,48.02
2018-10-16T10:16:31.379Z,48.87
2018-10-16T10:19:01.976Z,48.88
2018-10-16T10:21:32.599Z,48.94
2018-10-16T10:24:03.210Z,48.19
2018-10-16T10:26:33.839Z,47.44
2018-10-16T10:29:04.700Z,47.54
2018-10-16T10:31:35.511Z,47.33
2018-10-16T10:34:05.928Z,46.64
2018-10-16T10:36:36.748Z,47.11
2018-10-16T10:39:11.045Z,46.86
2018-10-16T10:41:42.189Z,47.30
2018-10-16T10:44:12.839Z,48.07
2018-10-16T10:46:43.445Z,46.90
2018-10-16T10:49:14.075Z,46.70
2018-10-16T10:51:44.678Z,47.63
2018-10-16T10:54:15.299Z,47.34
2018-10-16T10:56:45.928Z,47.92
2018-10-16T10:59:16.700Z,47.75
2018-10-16T11:01:47.302Z,46.56
2018-10-16T11:04:18.139Z,46.42
2018-10-16T11:06:48.715Z,46.21
2018-10-16T11:09:19.335Z,47.13
2018-10-16T11:11:57.060Z,46.47
2018-10-16T11:14:28.444Z,45.70
2018-10-16T11:16:59.041Z,46.24
2018-10-16T11:19:29.758Z,45.60
2018-10-16T11:22:00.461Z,46.15
2018-10-16T11:24:30.835Z,45.86
2018-10-16T11:27:01.473Z,45.80
2018-10-16T11:29:32.422Z,45.74
2018-10-16T11:32:03.035Z,45.44
2018-10-16T11:34:33.620Z,45.90
2018-10-16T11:37:04.340Z,45.44
2018-10-16T11:39:35.106Z,45.51
2018-10-16T11:42:06.232Z,44.60
2018-10-16T11:44:37.097Z,44.73
2018-10-16T11:47:07.761Z,45.97
2018-10-16T11:49:38.371Z,45.19
2018-10-16T11:52:09.271Z,45.67
2018-10-16T11:54:39.999Z,45.47
2018-10-16T11:57:10.679Z,44.26
2018-10-16T11:59:41.288Z,45.13
2018-10-16T12:02:12.025Z,45.90
2018-10-16T12:04:42.736Z,44.13
2018-10-16T12:07:13.842Z,44.09
2018-10-16T12:09:44.641Z,44.88
2018-10-16T12:12:15.479Z,44.96
2018-10-16T12:14:46.173Z,44.24
2018-10-16T12:17:38.407Z,44.98
2018-10-16T12:20:12.081Z,44.71
2018-10-16T12:22:42.744Z,44.80
2018-10-16T12:25:13.452Z,44.91
2018-10-16T12:27:43.948Z,43.91
2018-10-16T12:30:14.580Z,44.18
2018-10-16T12:32:45.195Z,44.85
2018-10-16T12:35:15.764Z,43.71
2018-10-16T12:37:46.415Z,44.25
2018-10-16T12:40:17.199Z,44.24
2018-10-16T12:42:47.940Z,43.34
2018-10-16T12:45:18.689Z,43.77
2018-10-16T12:47:49.270Z,44.10
2018-10-16T12:50:19.932Z,43.34
2018-10-16T12:52:50.784Z,44.34
2018-10-16T12:55:21.469Z,44.08
2018-10-16T12:57:52.080Z,43.77
2018-10-16T13:00:22.712Z,44.08
2018-10-16T13:02:53.350Z,44.99
2018-10-16T13:05:24.118Z,44.31
2018-10-16T13:07:54.750Z,44.09
2018-10-16T13:10:25.571Z,44.18
2018-10-16T13:12:56.403Z,43.95
2018-10-16T13:15:27.027Z,44.54
2018-10-16T13:17:57.652Z,44.33
2018-10-16T13:20:28.240Z,43.97
2018-10-16T13:22:58.970Z,44.68
2018-10-16T13:25:29.707Z,44.44
2018-10-16T13:28:00.396Z,43.78
2018-10-16T13:30:31.191Z,43.59
2018-10-16T13:33:01.808Z,43.25
2018-10-16T13:35:32.364Z,43.34
2018-10-16T13:38:03.075Z,43.49
2018-10-16T13:40:33.832Z,43.61
2018-10-16T13:43:04.528Z,43.44
2018-10-16T13:45:35.362Z,43.37
2018-10-16T13:48:06.827Z,43.24
2018-10-16T13:50:37.440Z,43.38
2018-10-16T13:53:08.295Z,43.66
2018-10-16T13:55:38.868Z,43.68
2018-10-16T13:58:09.464Z,43.31
2018-10-16T14:00:40.614Z,43.15
2018-10-16T14:03:11.226Z,43.91
2018-10-16T14:05:42.803Z,43.55
2018-10-16T14:08:13.484Z,42.65
2018-10-16T14:10:44.211Z,43.28
2018-10-16T14:13:14.849Z,42.55
2018-10-16T14:15:45.791Z,42.74
2018-10-16T14:18:16.413Z,43.25
2018-10-16T14:20:46.731Z,42.83
2018-10-16T14:23:17.316Z,43.72
2018-10-16T14:25:47.900Z,43.88
2018-10-16T14:28:18.663Z,43.99
2018-10-16T14:30:49.270Z,43.26
2018-10-16T14:33:19.859Z,43.24
2018-10-16T14:35:50.472Z,42.84
2018-10-16T14:38:21.456Z,43.83
2018-10-16T14:40:52.268Z,43.73
2018-10-16T14:43:22.920Z,44.33
2018-10-16T14:45:53.913Z,44.31
2018-10-16T14:48:24.656Z,44.18
2018-10-16T14:50:55.372Z,44.38
2018-10-16T14:53:25.980Z,44.21
2018-10-16T14:55:56.585Z,44.08
2018-10-16T14:58:27.488Z,44.23
2018-10-16T15:00:58.072Z,44.71
2018-10-16T15:03:28.714Z,44.72
2018-10-16T15:05:59.654Z,44.07
2018-10-16T15:08:30.304Z,44.90
2018-10-16T15:11:00.981Z,44.84
2018-10-16T15:13:31.560Z,44.69
2018-10-16T15:16:02.312Z,44.40
2018-10-16T15:18:33.037Z,44.96
2018-10-16T15:21:03.676Z,45.08
2018-10-16T15:23:34.381Z,45.99
2018-10-16T15:26:05.792Z,45.51
2018-10-16T15:28:36.951Z,46.20
2018-10-16T15:31:07.542Z,45.76
2018-10-16T15:33:38.284Z,45.90
2018-10-16T15:36:08.927Z,45.81
2018-10-16T15:38:39.735Z,46.54
2018-10-16T15:41:10.445Z,45.57
2018-10-16T15:43:41.189Z,45.91
2018-10-16T15:46:11.898Z,46.32
2018-10-16T15:48:42.629Z,46.42
2018-10-16T15:51:13.255Z,46.56
2018-10-16T15:53:44.095Z,46.48
2018-10-16T15:56:14.652Z,46.96
2018-10-16T15:58:45.247Z,46.51
2018-10-16T16:01:15.832Z,46.33
2018-10-16T16:03:46.429Z,46.35
2018-10-16T16:06:17.715Z,47.10
2018-10-16T16:08:48.371Z,47.49
2018-10-16T16:11:18.935Z,46.83
2018-10-16T16:13:49.552Z,47.51
2018-10-16T16:16:20.160Z,48.49
2018-10-16T16:18:50.787Z,47.85
2018-10-16T16:21:21.387Z,48.99
2018-10-16T16:23:52.083Z,48.76
2018-10-16T16:26:22.927Z,49.00
2018-10-16T16:28:53.684Z,48.93
2018-10-16T16:31:24.304Z,49.12
2018-10-16T16:33:54.964Z,48.71
2018-10-16T16:36:25.710Z,49.69
2018-10-16T16:38:56.579Z,48.94
2018-10-16T16:41:27.181Z,49.21
2018-10-16T16:43:57.964Z,49.69
2018-10-16T16:46:28.631Z,49.40
2018-10-16T16:48:59.221Z,49.42
2018-10-16T16:51:29.837Z,50.28
2018-10-16T16:54:00.757Z,49.94
2018-10-16T16:56:31.421Z,50.62
2018-10-16T16:59:02.092Z,50.75
2018-10-16T17:01:32.893Z,51.20
2018-10-16T17:04:03.589Z,51.00
2018-10-16T17:06:35.041Z,50.88
2018-10-16T17:09:10.603Z,52.17
2018-10-16T17:11:41.419Z,52.91
2018-10-16T17:14:12.296Z,53.48
2018-10-16T17:16:43.095Z,53.21
2018-10-16T17:19:13.747Z,53.39
2018-10-16T17:21:44.431Z,53.69
2018-10-16T17:24:15.079Z,54.35
2018-10-16T17:26:46.072Z,54.60
2018-10-16T17:29:16.800Z,54.17
2018-10-16T17:31:47.473Z,54.55
2018-10-16T17:34:18.544Z,54.88
2018-10-16T17:36:49.199Z,55.33
2018-10-16T17:39:19.864Z,55.29
2018-10-16T17:41:50.501Z,55.59
2018-10-16T17:44:21.152Z,55.95
2018-10-16T17:46:51.831Z,55.72
2018-10-16T17:49:22.416Z,56.42
2018-10-16T17:51:53.353Z,56.72
2018-10-16T17:54:24.029Z,56.11
2018-10-16T17:56:54.734Z,57.13
2018-10-16T17:59:25.556Z,56.87
2018-10-16T18:01:56.360Z,57.48
2018-10-16T18:04:27.288Z,57.04
2018-10-16T18:06:58.056Z,56.42
2018-10-16T18:09:28.780Z,56.58
2018-10-16T18:11:59.375Z,57.01
2018-10-16T18:14:30.099Z,57.83
2018-10-16T18:17:00.734Z,58.41
2018-10-16T18:19:31.477Z,58.86
2018-10-16T18:22:02.155Z,58.39
2018-10-16T18:24:32.801Z,59.13
2018-10-16T18:27:03.484Z,58.92
2018-10-16T18:29:34.303Z,59.51
2018-10-16T18:32:05.193Z,59.84
2018-10-16T18:34:35.928Z,60.14
2018-10-16T18:37:06.724Z,60.85
2018-10-16T18:39:37.474Z,60.55
2018-10-16T18:42:08.236Z,60.47
2018-10-16T18:44:39.118Z,60.43
2018-10-16T18:47:10.092Z,60.16
2018-10-16T18:49:40.754Z,60.44
2018-10-16T18:52:11.389Z,60.99
2018-10-16T18:54:42.257Z,60.72
2018-10-16T18:57:12.905Z,60.82
2018-10-16T18:59:43.712Z,60.78
2018-10-16T19:02:14.405Z,60.93
2018-10-16T19:04:45.320Z,60.97
2018-10-16T19:07:15.980Z,61.29
2018-10-16T19:09:46.880Z,60.83
2018-10-16T19:12:17.530Z,61.00
2018-10-16T19:14:48.165Z,61.24
2018-10-16T19:17:19.031Z,61.30
2018-10-16T19:19:49.695Z,61.47
2018-10-16T19:22:20.530Z,61.44
2018-10-16T19:24:51.040Z,61.89
2018-10-16T19:27:21.702Z,61.73
2018-10-16T19:29:52.524Z,61.48
2018-10-16T19:32:23.176Z,61.84
2018-10-16T19:34:53.875Z,62.02
2018-10-16T19:37:24.516Z,62.44
2018-10-16T19:39:55.179Z,63.01
2018-10-16T19:42:25.875Z,62.74
2018-10-16T19:44:56.509Z,62.98
2018-10-16T19:47:27.300Z,62.82
2018-10-16T19:49:57.923Z,63.17
2018-10-16T19:52:28.747Z,63.07
2018-10-16T19:54:59.376Z,62.85
2018-10-16T19:57:29.969Z,63.12
2018-10-16T20:00:00.647Z,63.33
2018-10-16T20:02:31.433Z,63.48
2018-10-16T20:05:02.191Z,63.67
2018-10-16T20:07:33.157Z,63.29
2018-10-16T20:10:03.833Z,63.51
2018-10-16T20:12:34.183Z,63.31
2018-10-16T20:15:06.356Z,63.35
2018-10-16T20:17:37.219Z,63.34
2018-10-16T20:20:09.299Z,63.93
2018-10-16T20:22:39.925Z,64.19
2018-10-16T20:25:11.086Z,64.07
2018-10-16T20:27:41.869Z,64.29
2018-10-16T20:30:12.988Z,64.25
2018-10-16T20:32:43.609Z,63.95
2018-10-16T20:35:14.440Z,64.31
2018-10-16T20:37:45.068Z,64.46
2018-10-16T20:40:15.696Z,64.56
2018-10-16T20:42:46.295Z,65.07
2018-10-16T20:45:16.939Z,64.75
2018-10-16T20:47:47.857Z,64.79
2018-10-16T20:50:21.735Z,64.60
2018-10-16T20:52:52.324Z,64.58
2018-10-16T20:55:22.915Z,64.79
2018-10-16T20:57:53.632Z,64.63
2018-10-16T21:00:24.684Z,64.94
2018-10-16T21:02:55.295Z,65.03
2018-10-16T21:05:26.098Z,64.96
2018-10-16T21:07:56.784Z,65.49
2018-10-16T21:10:27.395Z,65.34
2018-10-16T21:12:58.011Z,65.61
2018-10-16T21:15:28.799Z,65.05
2018-10-16T21:17:59.871Z,65.48
2018-10-16T21:20:30.472Z,65.75
2018-10-16T21:23:00.828Z,65.73
2018-10-16T21:25:31.628Z,65.77
2018-10-16T21:28:02.286Z,65.90
2018-10-16T21:30:33.068Z,66.05
2018-10-16T21:33:03.696Z,65.91
2018-10-16T21:35:34.284Z,66.89
2018-10-16T21:38:04.891Z,66.54
2018-10-16T21:40:35.718Z,66.46
2018-10-16T21:43:06.568Z,66.32
2018-10-16T21:45:37.410Z,66.63
2018-10-16T21:48:08.220Z,66.99
2018-10-16T21:50:38.843Z,66.80
2018-10-16T21:53:09.482Z,66.77
2018-10-16T21:55:40.286Z,67.12
2018-10-16T21:58:11.316Z,67.09
2018-10-16T22:00:47.215Z,67.29
2018-10-16T22:03:17.803Z,66.80
2018-10-16T22:05:48.651Z,67.02
2018-10-16T22:08:19.395Z,67.04
2018-10-16T22:10:50.288Z,67.03
2018-10-16T22:13:20.859Z,67.18
2018-10-16T22:15:51.483Z,67.42
2018-10-16T22:18:22.061Z,67.14
2018-10-16T22:20:52.687Z,67.11
2018-10-16T22:23:23.302Z,67.52
2018-10-16T22:25:54.106Z,67.68
2018-10-16T22:28:24.703Z,67.92
2018-10-16T22:30:55.335Z,67.85
2018-10-16T22:33:26.140Z,68.10
2018-10-16T22:35:56.534Z,68.22
2018-10-16T22:38:27.129Z,68.79
2018-10-16T22:40:57.754Z,68.95
2018-10-16T22:43:28.667Z,69.14
2018-10-16T22:45:59.237Z,69.04
2018-10-16T22:48:29.892Z,69.29
2018-10-16T22:51:00.510Z,69.08
2018-10-16T22:53:31.104Z,69.83
2018-10-16T22:56:01.701Z,69.08
2018-10-16T22:58:32.368Z,69.55
2018-10-16T23:01:03.374Z,69.45
2018-10-16T23:03:34.379Z,69.41
2018-10-16T23:06:05.525Z,70.08
2018-10-16T23:08:36.130Z,70.14
2018-10-16T23:11:06.878Z,70.02
2018-10-16T23:13:37.656Z,70.11
2018-10-16T23:16:08.577Z,69.89
2018-10-16T23:18:39.199Z,70.32
2018-10-16T23:21:11.515Z,70.44
2018-10-16T23:23:42.115Z,70.42
2018-10-16T23:26:12.735Z,70.44
2018-10-16T23:28:43.299Z,71.25
2018-10-16T23:31:13.954Z,71.83
2018-10-16T23:33:44.717Z,71.41
2018-10-16T23:36:15.863Z,71.03
2018-10-16T23:38:46.439Z,71.11
2018-10-16T23:41:17.060Z,71.19
2018-10-16T23:43:47.823Z,71.38
2018-10-16T23:46:18.430Z,71.51
2018-10-16T23:48:49.004Z,72.00
2018-10-16T23:51:19.631Z,71.99
2018-10-16T23:53:50.202Z,71.64
2018-10-16T23:56:21.034Z,71.84
2018-10-16T23:58:51.721Z,71.95
